Time;durP1;ratioP1;P1;durP2;ratioP2;P2;SDS_P1;SDS_P2;PMS_P1;PMS_P2;Temp;Humidity;BMP_temperature;BMP_pressure;BME280_temperature;BME280_humidity;BME280_pressure;Samples;Min_cycle;Max_cycle;Signal;HPM_P1;HPM_P2
2021/12/29 00:00:46;;;;;;;48.10;36.80;;;9.50;99.90;;;;;;5069464;28;20481;-71
2021/12/29 00:03:13;;;;;;;50.47;34.10;;;9.60;99.90;;;;;;5069536;28;20460;-71
2021/12/29 00:05:40;;;;;;;46.77;33.80;;;;;;;;;;5069542;28;20539;-71
2021/12/29 00:08:07;;;;;;;48.93;32.87;;;9.60;99.90;;;;;;5069736;28;20460;-71
2021/12/29 00:10:36;;;;;;;46.10;31.43;;;;;;;;;;5069596;28;20520;-71
2021/12/29 00:13:04;;;;;;;42.80;31.13;;;9.70;99.90;;;;;;5067949;28;20460;-71
2021/12/29 00:15:32;;;;;;;46.97;31.47;;;9.70;99.90;;;;;;5069032;28;20501;-71
2021/12/29 00:17:59;;;;;;;39.43;28.37;;;;;;;;;;5068781;28;20457;-71
2021/12/29 00:20:29;;;;;;;45.47;30.60;;;9.70;99.90;;;;;;5068710;28;20502;-72
2021/12/29 00:22:57;;;;;;;46.90;29.20;;;9.90;99.90;;;;;;5069533;28;20507;-72
2021/12/29 00:25:24;;;;;;;38.30;28.83;;;;;;;;;;5069464;28;20501;-71
2021/12/29 00:27:54;;;;;;;45.30;28.93;;;9.80;99.90;;;;;;5069348;28;20448;-71
2021/12/29 00:30:22;;;;;;;36.20;24.00;;;9.70;99.90;;;;;;5069186;28;20457;-71
2021/12/29 00:32:49;;;;;;;34.40;22.90;;;9.80;99.90;;;;;;5068835;28;20917;-72
2021/12/29 00:35:16;;;;;;;28.83;21.53;;;9.70;99.90;;;;;;5069054;28;20492;-71
2021/12/29 00:37:44;;;;;;;29.43;19.57;;;9.60;99.90;;;;;;5069356;28;20453;-71
2021/12/29 00:40:12;;;;;;;31.20;19.50;;;;;;;;;;5069125;28;20502;-71
2021/12/29 00:42:39;;;;;;;25.00;17.20;;;;;;;;;;5069560;28;20888;-72
2021/12/29 00:45:09;;;;;;;28.20;19.13;;;9.70;99.90;;;;;;5068922;28;20471;-72
2021/12/29 00:47:37;;;;;;;24.40;16.60;;;;;;;;;;5069081;28;20535;-72
2021/12/29 00:50:07;;;;;;;26.87;17.50;;;9.80;99.90;;;;;;5069298;28;20790;-72
2021/12/29 00:52:34;;;;;;;23.33;17.13;;;;;;;;;;5069269;28;20514;-72
2021/12/29 00:55:01;;;;;;;27.03;18.43;;;;;;;;;;5067676;28;20497;-70
2021/12/29 00:57:29;;;;;;;26.13;17.80;;;10.00;99.90;;;;;;5068729;28;20457;-70
2021/12/29 00:59:56;;;;;;;23.90;17.60;;;9.60;99.90;;;;;;5068973;28;20790;-70
2021/12/29 01:02:25;;;;;;;28.60;19.50;;;10.30;99.90;;;;;;5068883;28;20544;-71
2021/12/29 01:04:52;;;;;;;25.23;18.83;;;10.30;99.90;;;;;;5068718;28;20505;-71
2021/12/29 01:07:19;;;;;;;25.23;17.97;;;10.30;99.90;;;;;;5067525;28;20975;-71
2021/12/29 01:09:46;;;;;;;24.77;18.73;;;10.40;99.90;;;;;;5068687;28;20514;-71
2021/12/29 01:12:15;;;;;;;31.60;22.70;;;10.40;99.90;;;;;;5068431;28;20437;-71
2021/12/29 01:14:45;;;;;;;30.63;22.37;;;10.40;99.90;;;;;;5068385;28;20485;-71
2021/12/29 01:17:12;;;;;;;32.30;22.60;;;10.40;99.90;;;;;;5068615;28;20518;-71
2021/12/29 01:19:40;;;;;;;34.10;24.17;;;10.30;99.90;;;;;;5068827;28;20464;-71
2021/12/29 01:22:07;;;;;;;29.70;22.60;;;10.40;99.90;;;;;;5068832;28;20449;-71
2021/12/29 01:24:34;;;;;;;30.93;22.50;;;10.40;99.90;;;;;;5067918;28;20506;-71
2021/12/29 01:27:03;;;;;;;31.20;24.40;;;10.40;99.90;;;;;;5068704;28;20449;-71
2021/12/29 01:29:31;;;;;;;32.00;23.70;;;10.40;99.90;;;;;;5068561;28;20472;-71
2021/12/29 01:31:58;;;;;;;29.27;22.73;;;10.50;99.90;;;;;;5070286;28;20543;-72
2021/12/29 01:34:26;;;;;;;31.33;23.30;;;10.50;99.90;;;;;;5071999;28;20495;-71
2021/12/29 01:36:55;;;;;;;28.43;22.67;;;10.50;99.90;;;;;;5071964;28;20533;-70
2021/12/29 01:39:23;;;;;;;28.90;20.93;;;10.40;99.90;;;;;;5071605;28;20503;-72
2021/12/29 01:41:52;;;;;;;28.40;20.20;;;10.50;99.90;;;;;;5071867;28;20481;-71
2021/12/29 01:44:23;;;;;;;24.57;19.43;;;10.50;99.90;;;;;;5072016;28;20456;-71
2021/12/29 01:46:52;;;;;;;28.40;20.83;;;10.60;99.90;;;;;;5071906;28;20477;-72
2021/12/29 01:49:19;;;;;;;27.80;19.30;;;;;;;;;;5071952;28;20461;-71
2021/12/29 01:51:51;;;;;;;31.13;21.03;;;10.80;99.90;;;;;;5071413;28;20970;-71
2021/12/29 01:54:24;;;;;;;31.13;19.33;;;;;;;;;;5071201;28;20492;-72
2021/12/29 01:56:54;;;;;;;25.50;18.90;;;10.70;99.90;;;;;;5071662;28;21036;-71
2021/12/29 01:59:25;;;;;;;27.37;19.07;;;10.70;99.90;;;;;;5071459;28;20934;-71
2021/12/29 02:01:52;;;;;;;22.63;16.93;;;10.60;99.90;;;;;;5071559;28;20449;-72
2021/12/29 02:04:21;;;;;;;25.77;18.30;;;10.60;99.90;;;;;;5071485;28;20514;-71
2021/12/29 02:06:49;;;;;;;24.90;17.60;;;;;;;;;;5071410;28;20468;-71
2021/12/29 02:09:16;;;;;;;26.30;16.13;;;10.70;99.90;;;;;;5071278;28;20492;-71
2021/12/29 02:11:45;;;;;;;24.03;15.10;;;10.70;99.90;;;;;;5070214;28;20456;-71
2021/12/29 02:14:12;;;;;;;25.73;14.27;;;;;;;;;;5071479;28;20456;-71
2021/12/29 02:16:40;;;;;;;22.83;15.73;;;10.50;99.90;;;;;;5069951;28;20882;-70
2021/12/29 02:19:09;;;;;;;22.33;15.90;;;10.50;99.90;;;;;;5071440;28;20452;-71
2021/12/29 02:21:39;;;;;;;24.43;15.80;;;10.60;99.90;;;;;;5071202;28;20860;-71
2021/12/29 02:24:23;;;;;;;25.50;15.97;;;;;;;;;;5070513;28;20980;-71
2021/12/29 02:26:51;;;;;;;21.63;15.23;;;10.70;99.90;;;;;;5071201;28;20490;-71
2021/12/29 02:29:19;;;;;;;22.97;15.80;;;10.70;99.90;;;;;;5071023;28;20465;-71
2021/12/29 02:31:47;;;;;;;23.43;14.37;;;;;;;;;;5070652;28;20513;-72
2021/12/29 02:34:17;;;;;;;21.37;14.90;;;10.70;99.90;;;;;;5070882;28;20579;-71
2021/12/29 02:36:47;;;;;;;27.53;16.60;;;10.50;99.90;;;;;;5070892;28;20477;-72
2021/12/29 02:39:18;;;;;;;28.57;19.47;;;10.60;99.90;;;;;;5070748;28;20456;-72
2021/12/29 02:41:49;;;;;;;28.50;21.90;;;10.60;99.90;;;;;;5070696;28;20528;-71
2021/12/29 02:44:23;;;;;;;31.57;23.00;;;10.60;99.90;;;;;;5070827;28;20468;-70
2021/12/29 02:46:50;;;;;;;36.23;24.80;;;10.60;99.90;;;;;;5070432;28;20508;-72
2021/12/29 02:49:18;;;;;;;33.70;26.10;;;10.40;99.90;;;;;;5070658;28;20460;-71
2021/12/29 02:51:47;;;;;;;36.33;24.97;;;10.30;99.90;;;;;;5070615;28;20453;-70
2021/12/29 02:54:16;;;;;;;34.83;25.27;;;10.30;99.90;;;;;;5070329;28;20502;-70
2021/12/29 02:56:43;;;;;;;34.93;26.20;;;10.30;99.90;;;;;;5070569;28;20500;-72
2021/12/29 02:59:10;;;;;;;40.90;26.87;;;10.20;99.90;;;;;;5070411;28;20508;-70
2021/12/29 03:01:37;;;;;;;41.20;27.30;;;10.20;99.90;;;;;;5070334;28;20498;-71
2021/12/29 03:04:07;;;;;;;39.50;27.60;;;10.40;99.90;;;;;;5069974;28;20467;-71
2021/12/29 03:06:34;;;;;;;42.63;30.47;;;10.40;99.90;;;;;;5070663;28;20465;-72
2021/12/29 03:09:05;;;;;;;39.20;29.90;;;10.40;99.90;;;;;;5070331;28;20510;-71
2021/12/29 03:11:33;;;;;;;44.93;31.90;;;9.90;99.90;;;;;;5070461;28;20453;-71
2021/12/29 03:14:01;;;;;;;42.43;30.37;;;9.90;99.90;;;;;;5070238;28;20456;-71
2021/12/29 03:16:28;;;;;;;41.13;32.50;;;9.80;99.90;;;;;;5070026;28;20829;-71
2021/12/29 03:18:55;;;;;;;47.20;32.10;;;9.70;99.90;;;;;;5070115;28;20480;-72
2021/12/29 03:21:22;;;;;;;46.63;31.17;;;9.60;99.90;;;;;;5069702;28;20445;-71
2021/12/29 03:23:49;;;;;;;46.53;32.27;;;9.70;99.90;;;;;;5069574;28;20450;-71
2021/12/29 03:26:19;;;;;;;43.33;32.17;;;9.80;99.90;;;;;;5069888;28;20526;-70
2021/12/29 03:28:46;;;;;;;46.30;33.83;;;9.30;99.90;;;;;;5070121;28;20449;-70
2021/12/29 03:31:17;;;;;;;50.70;34.97;;;9.00;99.90;;;;;;5069860;28;20461;-70
2021/12/29 03:33:46;;;;;;;50.67;34.47;;;9.10;99.90;;;;;;5069932;28;20912;-70
2021/12/29 03:36:14;;;;;;;43.07;31.30;;;9.30;99.90;;;;;;5069372;28;20914;-71
2021/12/29 03:38:42;;;;;;;50.40;35.80;;;9.20;99.90;;;;;;5069693;28;20450;-70
2021/12/29 03:41:11;;;;;;;53.73;38.40;;;8.70;99.90;;;;;;5069656;28;20917;-70
2021/12/29 03:43:41;;;;;;;54.20;36.83;;;8.90;99.90;;;;;;5069780;28;20961;-70
2021/12/29 03:46:09;;;;;;;49.27;33.60;;;9.30;99.90;;;;;;5069612;28;20510;-70
2021/12/29 03:48:38;;;;;;;48.73;35.27;;;9.30;99.90;;;;;;5069596;28;20956;-71
2021/12/29 03:51:06;;;;;;;45.53;32.07;;;9.40;99.90;;;;;;5069627;28;20510;-71
2021/12/29 03:53:33;;;;;;;42.07;30.80;;;;;;;;;;5067472;28;20911;-72
2021/12/29 03:56:01;;;;;;;50.10;31.27;;;9.60;99.90;;;;;;5069133;28;20488;-72
2021/12/29 03:58:30;;;;;;;47.77;30.87;;;9.50;99.90;;;;;;5069703;28;20471;-71
2021/12/29 04:01:05;;;;;;;45.30;31.63;;;9.70;99.90;;;;;;5069177;28;20525;-70
2021/12/29 04:03:32;;;;;;;41.67;31.03;;;9.50;99.90;;;;;;5069263;28;20459;-70
2021/12/29 04:05:59;;;;;;;39.50;30.50;;;9.70;99.90;;;;;;5069213;28;20836;-71
2021/12/29 04:08:28;;;;;;;44.07;29.03;;;9.60;99.90;;;;;;5069678;28;20461;-70
2021/12/29 04:10:55;;;;;;;41.40;29.10;;;9.50;99.90;;;;;;5069706;28;20445;-70
2021/12/29 04:13:22;;;;;;;46.73;32.13;;;9.00;99.90;;;;;;5069586;28;20472;-70
2021/12/29 04:15:49;;;;;;;51.27;33.87;;;;;;;;;;5069035;28;20503;-70
2021/12/29 04:18:26;;;;;;;46.33;30.83;;;9.20;99.90;;;;;;5069329;28;20455;-70
2021/12/29 04:20:58;;;;;;;41.33;31.33;;;9.40;99.90;;;;;;5069273;28;20485;-70
2021/12/29 04:23:28;;;;;;;48.40;32.70;;;9.30;99.90;;;;;;5069118;28;20502;-71
2021/12/29 04:25:56;;;;;;;45.73;31.47;;;9.10;99.90;;;;;;5069352;28;20556;-71
2021/12/29 04:28:25;;;;;;;45.27;31.57;;;9.30;99.90;;;;;;5069056;28;20536;-70
2021/12/29 04:30:55;;;;;;;45.03;30.77;;;9.40;99.90;;;;;;5068973;28;20543;-69
2021/12/29 04:33:25;;;;;;;39.53;30.40;;;;;;;;;;5069136;28;20953;-71
2021/12/29 04:35:52;;;;;;;45.13;33.60;;;9.20;99.90;;;;;;5068942;28;20546;-70
2021/12/29 04:38:21;;;;;;;54.70;32.37;;;9.20;99.90;;;;;;5069047;28;20513;-71
2021/12/29 04:40:49;;;;;;;47.80;33.10;;;9.20;99.90;;;;;;5068975;28;20540;-71
2021/12/29 04:43:17;;;;;;;43.70;31.30;;;9.10;99.90;;;;;;5068910;28;20518;-71
2021/12/29 04:45:44;;;;;;;46.67;30.60;;;9.20;99.90;;;;;;5068716;28;20547;-70
2021/12/29 04:48:13;;;;;;;45.10;31.03;;;8.90;99.90;;;;;;5069101;28;20449;-70
2021/12/29 04:50:50;;;;;;;45.47;32.33;;;9.00;99.90;;;;;;5069384;28;20460;-70
2021/12/29 04:53:19;;;;;;;46.80;30.80;;;9.20;99.90;;;;;;5068670;28;20452;-71
2021/12/29 04:55:49;;;;;;;49.53;29.33;;;9.00;99.90;;;;;;5069214;28;20492;-71
2021/12/29 04:58:18;;;;;;;49.63;31.17;;;9.10;99.90;;;;;;5068956;28;20503;-71
2021/12/29 05:00:46;;;;;;;47.07;30.57;;;9.30;99.90;;;;;;5068958;28;20455;-70
2021/12/29 05:03:14;;;;;;;49.90;33.67;;;9.40;99.90;;;;;;5068878;28;20548;-70
2021/12/29 05:05:55;;;;;;;47.27;30.87;;;9.40;99.90;;;;;;5069804;28;20560;-71
2021/12/29 05:08:25;;;;;;;45.63;30.73;;;9.40;99.90;;;;;;5072428;28;20908;-71
2021/12/29 05:10:56;;;;;;;41.10;31.17;;;9.60;99.90;;;;;;5072648;28;20448;-71
2021/12/29 05:13:25;;;;;;;39.07;30.33;;;9.50;99.90;;;;;;5072935;28;20445;-72
2021/12/29 05:15:52;;;;;;;43.87;30.50;;;9.50;99.90;;;;;;5072430;28;20887;-71
2021/12/29 05:18:19;;;;;;;41.33;29.87;;;9.50;99.90;;;;;;5072716;28;20456;-72
2021/12/29 05:20:48;;;;;;;50.20;34.63;;;9.50;99.90;;;;;;5072587;28;20566;-72
2021/12/29 05:23:15;;;;;;;55.03;42.10;;;9.60;99.90;;;;;;5072242;28;20506;-71
2021/12/29 05:25:43;;;;;;;63.10;41.03;;;;;;;;;;5072413;28;20517;-70
2021/12/29 05:28:10;;;;;;;49.00;33.90;;;9.50;99.90;;;;;;5072324;28;20457;-71
2021/12/29 05:30:37;;;;;;;38.57;29.37;;;9.50;99.90;;;;;;5071800;28;20941;-70
2021/12/29 05:33:05;;;;;;;40.20;28.50;;;9.60;99.90;;;;;;5071957;28;20449;-71
2021/12/29 05:35:34;;;;;;;41.03;30.50;;;9.60;99.90;;;;;;5071823;28;20481;-71
2021/12/29 05:38:03;;;;;;;45.10;31.03;;;9.40;99.90;;;;;;5071594;28;20453;-71
2021/12/29 05:40:31;;;;;;;40.87;28.37;;;9.50;99.90;;;;;;5072300;28;20445;-71
2021/12/29 05:42:59;;;;;;;44.53;31.37;;;9.50;99.90;;;;;;5071845;28;20441;-70
2021/12/29 05:45:28;;;;;;;41.20;28.73;;;9.50;99.90;;;;;;5071591;28;20522;-72
2021/12/29 05:47:56;;;;;;;37.93;27.87;;;9.50;99.90;;;;;;5072050;28;20536;-71
2021/12/29 05:50:28;;;;;;;41.77;28.97;;;9.70;99.90;;;;;;5071766;28;20522;-70
2021/12/29 05:52:56;;;;;;;41.70;27.87;;;9.80;99.90;;;;;;5071424;28;20460;-71
2021/12/29 05:55:26;;;;;;;34.43;26.03;;;9.80;99.90;;;;;;5071684;28;21139;-71
2021/12/29 05:57:53;;;;;;;38.07;28.47;;;9.80;99.90;;;;;;5071924;28;20785;-70
2021/12/29 06:00:22;;;;;;;40.53;27.83;;;9.60;99.90;;;;;;5071566;28;20453;-71
2021/12/29 06:02:50;;;;;;;37.80;27.80;;;9.60;99.90;;;;;;5071624;28;20476;-71
2021/12/29 06:05:18;;;;;;;41.20;27.03;;;9.70;99.90;;;;;;5071812;28;20787;-71
2021/12/29 06:07:45;;;;;;;42.27;28.57;;;9.80;99.90;;;;;;5071582;28;20501;-71
2021/12/29 06:10:12;;;;;;;44.67;29.30;;;9.90;99.90;;;;;;5071458;28;20461;-70
2021/12/29 06:12:41;;;;;;;42.73;28.00;;;9.80;99.90;;;;;;5071631;28;20473;-71
2021/12/29 06:15:09;;;;;;;37.73;27.27;;;9.70;99.90;;;;;;5071221;28;20449;-71
2021/12/29 06:17:37;;;;;;;40.57;26.57;;;9.70;99.90;;;;;;5070324;28;20492;-70
2021/12/29 06:20:06;;;;;;;37.80;25.87;;;9.70;99.90;;;;;;5071046;28;20894;-71
2021/12/29 06:22:33;;;;;;;38.37;26.43;;;9.70;99.90;;;;;;5071148;28;20542;-71
2021/12/29 06:25:00;;;;;;;39.17;27.10;;;9.80;99.90;;;;;;5070600;28;20518;-71
2021/12/29 06:27:27;;;;;;;39.27;28.60;;;9.80;99.90;;;;;;5070990;28;20445;-70
2021/12/29 06:29:56;;;;;;;43.30;28.50;;;8.90;99.90;;;;;;5070870;28;20461;-72
2021/12/29 06:32:23;;;;;;;38.83;27.43;;;9.80;99.90;;;;;;5071174;28;20531;-74
2021/12/29 06:34:50;;;;;;;39.80;27.23;;;;;;;;;;5071103;28;20461;-73
2021/12/29 06:37:17;;;;;;;41.00;28.83;;;9.80;99.90;;;;;;5070610;28;20500;-72
2021/12/29 06:39:46;;;;;;;41.87;28.43;;;9.80;99.90;;;;;;5070987;28;20494;-71
2021/12/29 06:42:15;;;;;;;36.60;26.40;;;9.70;99.90;;;;;;5070467;28;20473;-71
2021/12/29 06:44:42;;;;;;;40.77;28.60;;;;;;;;;;5070747;28;20460;-71
2021/12/29 06:47:11;;;;;;;38.17;27.60;;;9.80;99.90;;;;;;5071175;28;20490;-71
2021/12/29 06:49:38;;;;;;;45.07;28.40;;;9.80;99.90;;;;;;5070783;28;20838;-70
2021/12/29 06:52:06;;;;;;;36.73;27.57;;;9.90;99.90;;;;;;5070422;28;20473;-72
2021/12/29 06:54:34;;;;;;;35.77;26.90;;;;;;;;;;5069991;28;20497;-72
2021/12/29 06:57:01;;;;;;;38.27;26.30;;;10.10;99.90;;;;;;5070440;28;20988;-71
2021/12/29 06:59:28;;;;;;;38.30;26.03;;;10.30;99.90;;;;;;5070093;28;20460;-72
2021/12/29 07:01:56;;;;;;;35.53;26.30;;;10.30;99.90;;;;;;5070653;28;20842;-71
2021/12/29 07:04:25;;;;;;;36.00;25.50;;;;;;;;;;5070106;28;20455;-72
2021/12/29 07:06:52;;;;;;;39.07;26.87;;;10.40;99.90;;;;;;5070465;28;20445;-71
2021/12/29 07:09:20;;;;;;;38.17;27.37;;;;;;;;;;5070289;28;20457;-71
2021/12/29 07:11:49;;;;;;;37.53;27.50;;;10.50;99.90;;;;;;5068943;28;20910;-73
2021/12/29 07:14:16;;;;;;;40.70;28.60;;;10.40;99.90;;;;;;5070094;28;20453;-72
2021/12/29 07:16:44;;;;;;;45.27;26.93;;;10.20;99.90;;;;;;5070088;28;20496;-71
2021/12/29 07:19:12;;;;;;;40.53;28.53;;;10.00;99.90;;;;;;5069836;28;20457;-71
2021/12/29 07:21:43;;;;;;;44.70;28.63;;;;;;;;;;5069973;28;20449;-71
2021/12/29 07:24:10;;;;;;;38.33;28.33;;;9.80;99.90;;;;;;5070010;28;20456;-71
2021/12/29 07:26:38;;;;;;;42.37;31.10;;;;;;;;;;5069868;28;20556;-71
2021/12/29 07:29:06;;;;;;;37.00;27.37;;;;;;;;;;5069764;28;20472;-71
2021/12/29 07:31:34;;;;;;;36.97;28.47;;;;;;;;;;5069814;28;20453;-71
2021/12/29 07:34:02;;;;;;;37.60;25.67;;;10.10;99.90;;;;;;5070028;28;20445;-71
2021/12/29 07:36:29;;;;;;;41.80;29.17;;;;;;;;;;5069637;28;20496;-70
2021/12/29 07:38:57;;;;;;;40.80;30.73;;;9.70;99.90;;;;;;5069685;28;20464;-71
2021/12/29 07:41:25;;;;;;;37.53;27.17;;;;;;;;;;5069834;28;20511;-71
2021/12/29 07:43:52;;;;;;;40.27;28.23;;;10.10;99.90;;;;;;5069468;28;20502;-71
2021/12/29 07:46:20;;;;;;;36.00;26.03;;;;;;;;;;5069419;28;20557;-72
2021/12/29 07:48:48;;;;;;;45.53;28.30;;;10.30;99.90;;;;;;5069227;28;20832;-70
2021/12/29 07:51:16;;;;;;;37.37;26.10;;;;;;;;;;5069577;28;20452;-72
2021/12/29 07:53:44;;;;;;;40.73;27.07;;;10.40;99.90;;;;;;5069234;28;20477;-72
2021/12/29 07:56:12;;;;;;;40.97;28.50;;;10.50;99.90;;;;;;5069317;28;20519;-72
2021/12/29 07:58:40;;;;;;;40.87;28.90;;;10.50;99.90;;;;;;5069374;28;20539;-71
2021/12/29 08:01:10;;;;;;;35.03;26.43;;;10.40;99.90;;;;;;5069397;28;20958;-70
2021/12/29 08:03:39;;;;;;;37.50;27.80;;;10.40;99.90;;;;;;5069373;28;20457;-71
2021/12/29 08:06:07;;;;;;;39.47;28.50;;;10.30;99.90;;;;;;5069207;28;20549;-72
2021/12/29 08:08:34;;;;;;;36.10;27.50;;;10.30;99.90;;;;;;5069393;28;20881;-71
2021/12/29 08:11:02;;;;;;;42.47;29.57;;;10.30;99.90;;;;;;5069308;28;20463;-71
2021/12/29 08:13:30;;;;;;;43.60;29.73;;;10.20;99.90;;;;;;5068913;28;20457;-71
2021/12/29 08:15:57;;;;;;;43.23;29.20;;;10.20;99.90;;;;;;5068982;28;20476;-72
2021/12/29 08:18:25;;;;;;;41.50;27.97;;;10.20;99.90;;;;;;5069290;28;20481;-72
2021/12/29 08:20:52;;;;;;;41.23;28.30;;;10.30;99.90;;;;;;5069313;28;20453;-73
2021/12/29 08:23:19;;;;;;;43.67;28.90;;;10.30;99.90;;;;;;5065270;28;20797;-70
2021/12/29 08:25:47;;;;;;;41.20;28.47;;;10.50;99.90;;;;;;5049018;28;20535;-70
2021/12/29 08:28:14;;;;;;;44.50;30.00;;;10.50;99.90;;;;;;5048953;28;20450;-73
2021/12/29 08:30:42;;;;;;;41.47;30.30;;;10.60;99.90;;;;;;5049119;28;20450;-78
2021/12/29 08:33:09;;;;;;;39.50;28.30;;;10.60;99.90;;;;;;5049650;28;20919;-75
2021/12/29 08:35:37;;;;;;;47.00;31.37;;;10.60;99.90;;;;;;5049056;28;20470;-75
2021/12/29 08:38:04;;;;;;;43.73;28.80;;;10.60;99.90;;;;;;5049168;28;20489;-75
2021/12/29 08:40:31;;;;;;;43.60;29.40;;;10.60;99.90;;;;;;5054483;28;20525;-72
2021/12/29 08:43:01;;;;;;;41.70;27.60;;;10.70;99.90;;;;;;5072965;28;20461;-72
2021/12/29 08:45:30;;;;;;;41.80;26.90;;;10.80;99.90;;;;;;5072757;28;20530;-74
2021/12/29 08:47:59;;;;;;;40.07;27.27;;;10.80;99.90;;;;;;5073254;28;20801;-71
2021/12/29 08:50:30;;;;;;;38.93;27.27;;;10.80;99.90;;;;;;5072915;28;20913;-71
2021/12/29 08:52:58;;;;;;;40.60;28.40;;;10.80;99.90;;;;;;5072814;28;20561;-74
2021/12/29 08:55:25;;;;;;;38.53;26.63;;;10.70;99.90;;;;;;5071220;28;20488;-71
2021/12/29 08:57:52;;;;;;;40.27;28.37;;;10.70;99.90;;;;;;5072593;28;20846;-71
2021/12/29 09:00:22;;;;;;;40.10;28.67;;;10.80;99.90;;;;;;5072650;28;20529;-73
2021/12/29 09:02:50;;;;;;;37.03;28.20;;;10.70;99.90;;;;;;5072455;28;20467;-71
2021/12/29 09:05:19;;;;;;;42.40;30.27;;;10.80;99.90;;;;;;5072122;28;20473;-71
2021/12/29 09:07:48;;;;;;;39.13;28.00;;;10.70;99.90;;;;;;5072696;28;20441;-71
2021/12/29 09:10:18;;;;;;;43.97;28.97;;;10.80;99.90;;;;;;5072674;28;20453;-71
2021/12/29 09:12:47;;;;;;;45.03;29.60;;;10.80;99.90;;;;;;5072567;28;20544;-69
2021/12/29 09:15:15;;;;;;;41.80;29.00;;;10.80;99.90;;;;;;5072573;28;21039;-72
2021/12/29 09:17:43;;;;;;;42.30;28.77;;;10.80;99.90;;;;;;5072649;28;20493;-68
2021/12/29 09:20:15;;;;;;;37.20;28.20;;;10.80;99.90;;;;;;5072383;28;20456;-72
2021/12/29 09:22:44;;;;;;;38.27;28.47;;;10.80;99.90;;;;;;5072396;28;20960;-73
2021/12/29 09:25:11;;;;;;;42.70;29.33;;;11.50;99.90;;;;;;5072154;28;20525;-70
2021/12/29 09:27:39;;;;;;;41.80;30.70;;;10.80;99.90;;;;;;5072008;28;20441;-73
2021/12/29 09:30:07;;;;;;;43.80;27.73;;;10.90;99.90;;;;;;5072310;28;20530;-73
2021/12/29 09:32:34;;;;;;;39.30;28.20;;;11.00;99.90;;;;;;5072168;28;20502;-73
2021/12/29 09:35:01;;;;;;;40.57;27.77;;;11.10;99.90;;;;;;5071486;28;20477;-72
2021/12/29 09:37:30;;;;;;;42.37;31.50;;;11.10;99.90;;;;;;5072312;28;20492;-73
2021/12/29 09:39:59;;;;;;;38.53;28.80;;;11.10;99.90;;;;;;5072411;28;20457;-72
2021/12/29 09:42:26;;;;;;;37.40;27.97;;;11.10;99.90;;;;;;5072129;28;20460;-70
2021/12/29 09:44:54;;;;;;;38.73;26.70;;;11.20;99.90;;;;;;5072237;28;20456;-69
2021/12/29 09:47:21;;;;;;;37.80;28.67;;;11.20;99.90;;;;;;5072421;28;20456;-69
2021/12/29 09:49:48;;;;;;;36.20;26.17;;;11.20;99.90;;;;;;5071992;28;20507;-69
2021/12/29 09:52:16;;;;;;;38.17;25.90;;;11.40;99.90;;;;;;5070919;28;20863;-74
2021/12/29 09:54:44;;;;;;;38.57;25.93;;;11.40;99.90;;;;;;5072086;28;20797;-68
2021/12/29 09:57:13;;;;;;;36.63;25.97;;;11.50;99.90;;;;;;5072132;28;20485;-70
2021/12/29 09:59:40;;;;;;;33.97;26.73;;;11.40;99.90;;;;;;5072205;28;20709;-71
2021/12/29 10:02:08;;;;;;;34.37;26.33;;;11.50;99.90;;;;;;5071867;28;20453;-69
2021/12/29 10:04:37;;;;;;;33.93;26.33;;;11.60;99.90;;;;;;5071356;28;20457;-69
2021/12/29 10:07:15;;;;;;;42.00;31.03;;;11.60;99.90;;;;;;5071993;28;20480;-69
2021/12/29 10:09:42;;;;;;;32.97;25.00;;;11.60;99.90;;;;;;5071319;28;20863;-68
2021/12/29 10:12:18;;;;;;;36.07;26.37;;;11.60;99.90;;;;;;5071178;28;20510;-69
2021/12/29 10:14:49;;;;;;;36.30;26.03;;;11.50;99.90;;;;;;5071435;28;20517;-68
2021/12/29 10:17:16;;;;;;;37.80;24.33;;;11.60;99.90;;;;;;5071715;28;20563;-69
2021/12/29 10:19:44;;;;;;;28.50;23.10;;;11.60;99.90;;;;;;5071654;28;21007;-70
2021/12/29 10:22:20;;;;;;;29.33;22.17;;;11.70;99.90;;;;;;5071653;28;20832;-67
2021/12/29 10:24:47;;;;;;;31.23;22.47;;;11.70;99.90;;;;;;5071161;28;20453;-70
2021/12/29 10:27:19;;;;;;;30.83;21.83;;;11.80;99.90;;;;;;5071357;28;20506;-70
2021/12/29 10:29:47;;;;;;;25.20;19.40;;;11.80;99.90;;;;;;5071161;28;20463;-69
2021/12/29 10:32:23;;;;;;;24.47;18.67;;;11.80;99.90;;;;;;5069659;28;20449;-71
2021/12/29 10:34:52;;;;;;;25.67;20.00;;;11.90;99.90;;;;;;5070956;28;20771;-69
2021/12/29 10:37:20;;;;;;;28.17;19.90;;;11.80;99.90;;;;;;5070899;28;20488;-69
2021/12/29 10:39:52;;;;;;;25.93;19.70;;;11.90;99.90;;;;;;5070821;28;20499;-69
2021/12/29 10:42:24;;;;;;;26.70;19.90;;;12.00;99.90;;;;;;5071246;28;20449;-69
2021/12/29 10:44:57;;;;;;;27.63;19.50;;;12.00;99.90;;;;;;5069374;28;20457;-68
2021/12/29 10:47:27;;;;;;;25.93;20.30;;;12.20;99.90;;;;;;5070956;28;20852;-69
2021/12/29 10:49:58;;;;;;;28.07;19.70;;;12.20;99.90;;;;;;5070852;28;20461;-69
2021/12/29 10:52:34;;;;;;;22.57;17.43;;;12.20;99.90;;;;;;5070896;28;20449;-68
2021/12/29 10:55:02;;;;;;;23.37;18.40;;;12.30;99.90;;;;;;5070285;28;20488;-69
2021/12/29 10:57:32;;;;;;;24.80;18.43;;;12.40;99.90;;;;;;5070644;28;20488;-68
2021/12/29 11:00:02;;;;;;;24.80;20.77;;;12.50;99.90;;;;;;5070015;28;20452;-69
2021/12/29 11:02:31;;;;;;;26.90;20.27;;;12.40;99.90;;;;;;5069983;28;20449;-68
2021/12/29 11:05:00;;;;;;;26.70;20.73;;;12.30;99.90;;;;;;5069985;28;20535;-67
2021/12/29 11:07:28;;;;;;;25.63;19.73;;;12.30;99.90;;;;;;5068989;28;21035;-68
2021/12/29 11:09:55;;;;;;;30.67;21.73;;;12.50;99.90;;;;;;5070308;28;20441;-69
2021/12/29 11:12:23;;;;;;;27.57;21.50;;;12.50;99.90;;;;;;5070287;28;20476;-69
2021/12/29 11:14:53;;;;;;;24.67;19.03;;;12.50;99.90;;;;;;5069931;28;20532;-68
2021/12/29 11:17:26;;;;;;;26.17;18.47;;;12.50;99.90;;;;;;5070004;28;20493;-69
2021/12/29 11:19:57;;;;;;;29.90;21.53;;;12.60;99.90;;;;;;5070232;28;20514;-70
2021/12/29 11:22:26;;;;;;;32.60;25.00;;;12.60;99.90;;;;;;5070508;28;20540;-68
2021/12/29 11:24:56;;;;;;;29.90;22.80;;;12.60;99.90;;;;;;5069547;28;20453;-68
2021/12/29 11:27:24;;;;;;;28.83;23.00;;;12.50;99.90;;;;;;5069940;28;20536;-68
2021/12/29 11:29:55;;;;;;;30.60;23.70;;;12.60;99.90;;;;;;5069713;28;21015;-67
2021/12/29 11:32:29;;;;;;;34.37;27.23;;;12.60;99.90;;;;;;5069627;28;20479;-68
2021/12/29 11:35:10;;;;;;;36.77;26.17;;;12.30;99.90;;;;;;5069709;28;20461;-68
2021/12/29 11:37:39;;;;;;;32.77;24.33;;;12.30;99.90;;;;;;5069535;28;20489;-68
2021/12/29 11:40:09;;;;;;;35.70;25.17;;;12.40;99.90;;;;;;5069313;28;20449;-69
2021/12/29 11:42:36;;;;;;;32.93;22.50;;;12.50;99.90;;;;;;5068138;28;20464;-68
2021/12/29 11:45:07;;;;;;;29.60;23.40;;;12.50;99.90;;;;;;5069458;28;20531;-69
2021/12/29 11:47:34;;;;;;;34.93;26.73;;;12.50;99.90;;;;;;5069512;28;20495;-69
2021/12/29 11:50:01;;;;;;;37.00;27.20;;;12.50;99.90;;;;;;5069203;28;20460;-69
2021/12/29 11:52:46;;;;;;;35.03;28.17;;;12.50;99.90;;;;;;5069308;28;20468;-69
2021/12/29 11:55:16;;;;;;;42.90;29.30;;;12.50;99.90;;;;;;5068945;28;21015;-72
2021/12/29 11:57:44;;;;;;;44.10;30.07;;;13.30;99.90;;;;;;5069307;28;20503;-69
2021/12/29 12:00:17;;;;;;;41.90;28.40;;;12.50;99.90;;;;;;5069210;28;20465;-69
2021/12/29 12:02:45;;;;;;;37.63;28.30;;;12.60;99.90;;;;;;5069293;28;20456;-68
2021/12/29 12:05:14;;;;;;;39.23;29.10;;;12.40;99.90;;;;;;5069151;28;20473;-68
2021/12/29 12:07:42;;;;;;;37.83;28.90;;;12.40;99.90;;;;;;5069518;28;20560;-70
2021/12/29 12:10:12;;;;;;;43.13;28.67;;;12.30;99.90;;;;;;5069291;28;20518;-69
2021/12/29 12:12:44;;;;;;;38.70;29.97;;;12.20;99.90;;;;;;5069374;28;20588;-69
2021/12/29 12:15:13;;;;;;;41.30;30.60;;;12.10;99.90;;;;;;5068362;28;20504;-70
2021/12/29 12:17:42;;;;;;;38.57;29.23;;;12.10;99.90;;;;;;5068941;28;20514;-69
2021/12/29 12:20:12;;;;;;;37.40;29.73;;;12.40;99.90;;;;;;5069299;28;20521;-69
2021/12/29 12:22:45;;;;;;;37.90;30.50;;;12.50;99.90;;;;;;5069492;28;20941;-70
2021/12/29 12:25:13;;;;;;;33.07;27.03;;;12.60;99.90;;;;;;5068174;28;20484;-70
2021/12/29 12:27:43;;;;;;;33.50;26.50;;;12.70;99.90;;;;;;5069000;28;20506;-70
2021/12/29 12:30:14;;;;;;;38.43;29.27;;;12.70;99.90;;;;;;5069338;28;20891;-68
2021/12/29 12:32:44;;;;;;;40.17;29.53;;;12.70;99.90;;;;;;5069054;28;20510;-70
2021/12/29 12:35:12;;;;;;;33.47;25.73;;;12.60;99.90;;;;;;5069206;28;21054;-70
2021/12/29 12:37:42;;;;;;;33.40;25.47;;;12.70;99.90;;;;;;5067782;28;20451;-70
2021/12/29 12:40:13;;;;;;;34.43;27.00;;;12.70;99.90;;;;;;5068759;28;20446;-68
2021/12/29 12:42:41;;;;;;;34.30;26.53;;;12.70;99.90;;;;;;5069239;28;20464;-69
2021/12/29 12:45:24;;;;;;;36.50;25.00;;;12.70;99.90;;;;;;5067409;28;20476;-70
2021/12/29 12:48:03;;;;;;;33.90;26.20;;;12.70;99.90;;;;;;5068120;28;20453;-69